Reinosa, Spain
Current Conditions -  °F | °C
As of 4:30 PM on Monday 22 Dec 2014 (Local Time) from LEXJ Reporting Station
Clear Clear  
Wind Chill: 52°   Ceiling: Unl
Heat Index: 52°   Visibility: 6mi
Dew Point: 45°   Wind: 1mph
Humidity: 76%   Direction: NA
Pressure: 30.36"   Gusts: NA
Location:  43°N, 4.14°W
Report Text: LEXJ 221530Z VRB01KT CAVOK 11/07 Q1028
Loading
Personal Weather Stations






























Interactive Weather Map New forecast layout! Learn more

10-Day Weather Forecast

Advertisements
Track Severe Weather on mobile